Time;durP1;ratioP1;P1;durP2;ratioP2;P2;SDS_P1;SDS_P2;PMS_P1;PMS_P2;Temp;Humidity;BMP_temperature;BMP_pressure;BME280_temperature;BME280_humidity;BME280_pressure;Samples;Min_cycle;Max_cycle;Signal;HPM_P1;HPM_P2
2022/07/13 00:00:40;;;;;;;;;;;23.90;68.40;;;;;;4953362;29;19965;-96
2022/07/13 00:03:06;;;;;;;;;;;23.90;68.50;;;;;;4953072;29;19941;-96
2022/07/13 00:05:32;;;;;;;;;;;23.90;68.80;;;;;;4953098;29;20071;-96
2022/07/13 00:08:00;;;;;;;;;;;23.80;68.90;;;;;;4936545;29;19949;-96
2022/07/13 00:10:26;;;;;;;;;;;23.80;69.00;;;;;;4935768;29;19948;-96
2022/07/13 00:12:52;;;;;;;;;;;23.80;69.30;;;;;;4951856;29;19949;-96
2022/07/13 00:15:18;;;;;;;;;;;23.70;69.50;;;;;;4933128;29;19975;-96
2022/07/13 00:17:43;;;;;;;;;;;23.60;69.80;;;;;;4949949;29;20419;-96
2022/07/13 00:20:09;;;;;;;;;;;23.50;70.00;;;;;;4932943;29;19940;-96
2022/07/13 00:22:35;;;;;;;;;;;23.50;70.10;;;;;;4948999;29;19941;-96
2022/07/13 00:25:01;;;;;;;;;;;23.40;70.60;;;;;;4950695;29;19978;-96
2022/07/13 00:27:27;;;;;;;;;;;23.30;70.80;;;;;;4949499;29;20398;-96
2022/07/13 00:29:53;;;;;;;;;;;23.30;71.00;;;;;;4934186;29;19958;-96
2022/07/13 00:32:19;;;;;;;;;;;23.20;71.10;;;;;;4933168;29;20012;-96
2022/07/13 00:34:47;;;;;;;;;;;23.10;71.60;;;;;;4932736;29;19950;-96
2022/07/13 00:37:13;;;;;;;;;;;23.00;72.40;;;;;;4950064;29;19956;-96
2022/07/13 00:39:39;;;;;;;;;;;22.90;73.50;;;;;;4933136;29;20044;-96
2022/07/13 00:42:05;;;;;;;;;;;22.80;73.60;;;;;;4933308;29;19994;-96
2022/07/13 00:44:31;;;;;;;;;;;22.80;73.30;;;;;;4933192;29;19942;-96
2022/07/13 00:46:57;;;;;;;;;;;22.80;73.30;;;;;;4933444;29;19953;-96
2022/07/13 00:49:23;;;;;;;;;;;22.70;73.70;;;;;;4933950;29;19963;-96
2022/07/13 00:51:49;;;;;;;;;;;22.70;73.80;;;;;;4951467;29;19947;-96
2022/07/13 00:54:16;;;;;;;;;;;22.70;74.00;;;;;;4934021;29;19954;-96
2022/07/13 00:56:42;;;;;;;;;;;22.60;74.30;;;;;;4949359;29;19949;-96
2022/07/13 00:59:08;;;;;;;;;;;22.60;74.90;;;;;;4949264;29;19942;-96
2022/07/13 01:01:34;;;;;;;;;;;22.50;74.70;;;;;;4933507;29;19967;-96
2022/07/13 01:04:00;;;;;;;;;;;22.50;74.80;;;;;;4950160;29;19944;-96
2022/07/13 01:06:26;;;;;;;;;;;22.40;75.30;;;;;;4949661;29;19948;-96
2022/07/13 01:08:51;;;;;;;;;;;22.30;75.70;;;;;;4932417;29;19949;-97
2022/07/13 01:11:17;;;;;;;;;;;22.20;76.30;;;;;;4931567;29;20375;-96
2022/07/13 01:13:44;;;;;;;;;;;22.10;76.60;;;;;;4948945;29;19945;-96
2022/07/13 01:16:10;;;;;;;;;;;22.10;76.50;;;;;;4948660;29;19941;-96
2022/07/13 01:18:37;;;;;;;;;;;22.10;76.20;;;;;;4931987;29;19994;-96
2022/07/13 01:21:04;;;;;;;;;;;22.20;76.00;;;;;;4933169;29;20002;-96
2022/07/13 01:23:30;;;;;;;;;;;22.20;75.90;;;;;;4948560;29;19944;-96
2022/07/13 01:25:56;;;;;;;;;;;22.20;76.50;;;;;;4931461;29;19946;-96
2022/07/13 01:28:23;;;;;;;;;;;22.10;76.70;;;;;;4930523;29;20019;-96
2022/07/13 01:30:49;;;;;;;;;;;22.10;76.90;;;;;;4930206;29;19947;-96
2022/07/13 01:33:15;;;;;;;;;;;22.10;77.00;;;;;;4947672;29;19937;-96
2022/07/13 01:35:41;;;;;;;;;;;22.20;76.80;;;;;;4930399;29;19948;-97
2022/07/13 01:38:06;;;;;;;;;;;22.20;77.60;;;;;;4930246;29;19946;-96
2022/07/13 01:40:32;;;;;;;;;;;22.10;76.50;;;;;;4947489;29;20033;-96
2022/07/13 01:42:58;;;;;;;;;;;22.10;76.40;;;;;;4947437;29;19954;-96
2022/07/13 01:45:24;;;;;;;;;;;22.20;78.30;;;;;;4949010;29;19943;-96
2022/07/13 01:47:51;;;;;;;;;;;22.30;78.10;;;;;;4948379;29;19945;-96
2022/07/13 01:50:19;;;;;;;;;;;22.30;77.00;;;;;;4947995;29;19999;-96
2022/07/13 01:52:45;;;;;;;;;;;22.30;75.80;;;;;;4930112;29;19948;-96
2022/07/13 01:55:12;;;;;;;;;;;22.20;75.80;;;;;;4947788;29;20015;-96
2022/07/13 01:57:38;;;;;;;;;;;22.20;76.70;;;;;;4947806;29;20413;-96
2022/07/13 02:00:05;;;;;;;;;;;22.20;77.00;;;;;;4947972;29;19999;-96
2022/07/13 02:02:31;;;;;;;;;;;22.30;77.00;;;;;;4930033;29;20022;-96
2022/07/13 02:04:57;;;;;;;;;;;22.10;77.90;;;;;;4946132;29;19982;-96
2022/07/13 02:07:23;;;;;;;;;;;22.10;78.20;;;;;;4929070;29;19945;-96
2022/07/13 02:09:49;;;;;;;;;;;22.00;78.10;;;;;;4929097;29;19967;-96
2022/07/13 02:12:15;;;;;;;;;;;22.00;78.60;;;;;;4947631;29;19938;-96
2022/07/13 02:14:41;;;;;;;;;;;22.00;78.90;;;;;;4946802;29;19938;-96
2022/07/13 02:17:06;;;;;;;;;;;21.90;79.10;;;;;;4930878;29;19953;-96
2022/07/13 02:19:32;;;;;;;;;;;21.90;79.20;;;;;;4948226;29;19940;-96
2022/07/13 02:21:58;;;;;;;;;;;21.90;79.20;;;;;;4946960;29;20065;-96
2022/07/13 02:24:24;;;;;;;;;;;21.90;79.20;;;;;;4930541;29;19948;-96
2022/07/13 02:26:50;;;;;;;;;;;21.90;79.40;;;;;;4948152;29;20026;-96
2022/07/13 02:29:16;;;;;;;;;;;21.80;79.00;;;;;;4930980;29;19972;-96
2022/07/13 02:31:42;;;;;;;;;;;21.90;78.60;;;;;;4952265;29;19967;-96
2022/07/13 02:34:08;;;;;;;;;;;21.90;78.40;;;;;;4952023;29;19946;-96
2022/07/13 02:36:34;;;;;;;;;;;21.90;78.90;;;;;;4951153;29;19941;-96
2022/07/13 02:39:00;;;;;;;;;;;21.90;79.30;;;;;;4951337;29;19945;-97
2022/07/13 02:41:25;;;;;;;;;;;21.80;79.60;;;;;;4951112;29;19974;-96
2022/07/13 02:43:51;;;;;;;;;;;21.80;79.90;;;;;;4933466;29;20039;-96
2022/07/13 02:46:17;;;;;;;;;;;21.80;79.70;;;;;;4934075;29;19952;-96
2022/07/13 02:48:43;;;;;;;;;;;21.60;80.00;;;;;;4931696;29;19954;-96
2022/07/13 02:51:08;;;;;;;;;;;21.50;80.30;;;;;;4932030;29;19946;-96
2022/07/13 02:53:34;;;;;;;;;;;21.30;80.70;;;;;;4948948;29;19987;-96
2022/07/13 02:56:00;;;;;;;;;;;21.20;80.80;;;;;;4930473;29;19948;-96
2022/07/13 02:58:26;;;;;;;;;;;21.20;80.90;;;;;;4946781;29;20025;-96
2022/07/13 03:00:51;;;;;;;;;;;21.20;81.10;;;;;;4931697;29;20027;-96
2022/07/13 03:03:17;;;;;;;;;;;21.10;81.00;;;;;;4931161;29;19976;-96
2022/07/13 03:05:43;;;;;;;;;;;21.00;81.10;;;;;;4930966;29;20002;-96
2022/07/13 03:08:09;;;;;;;;;;;20.90;81.40;;;;;;4948671;29;19951;-96
2022/07/13 03:10:34;;;;;;;;;;;20.90;81.90;;;;;;4948241;29;20337;-96
2022/07/13 03:13:00;;;;;;;;;;;20.80;82.40;;;;;;4930802;29;20341;-96
2022/07/13 03:15:26;;;;;;;;;;;20.80;82.30;;;;;;4948652;29;19955;-97
2022/07/13 03:17:52;;;;;;;;;;;20.80;82.10;;;;;;4948355;29;20034;-96
2022/07/13 03:20:19;;;;;;;;;;;20.60;82.00;;;;;;4930350;29;19987;-96
2022/07/13 03:22:45;;;;;;;;;;;20.50;82.60;;;;;;4930651;29;19946;-96
2022/07/13 03:25:11;;;;;;;;;;;20.30;82.90;;;;;;4930280;29;19950;-96
2022/07/13 03:27:37;;;;;;;;;;;20.30;83.20;;;;;;4946704;29;20164;-96
2022/07/13 03:30:03;;;;;;;;;;;20.20;83.70;;;;;;4930072;29;20309;-96
2022/07/13 03:32:29;;;;;;;;;;;20.20;83.70;;;;;;4947192;29;19954;-96
2022/07/13 03:34:55;;;;;;;;;;;20.10;83.90;;;;;;4931121;29;19978;-96
2022/07/13 03:37:21;;;;;;;;;;;20.20;84.10;;;;;;4930821;29;19975;-96
2022/07/13 03:39:46;;;;;;;;;;;20.30;83.80;;;;;;4948538;29;19946;-96
2022/07/13 03:42:12;;;;;;;;;;;20.30;83.90;;;;;;4948015;28;20451;-96
2022/07/13 03:44:38;;;;;;;;;;;20.30;84.00;;;;;;4930784;29;20331;-96
2022/07/13 03:47:03;;;;;;;;;;;20.30;83.90;;;;;;4948516;29;19943;-96
2022/07/13 03:49:29;;;;;;;;;;;20.30;84.00;;;;;;4946405;29;19943;-96
2022/07/13 03:51:55;;;;;;;;;;;20.40;83.80;;;;;;4948163;29;19976;-96
2022/07/13 03:54:21;;;;;;;;;;;20.50;83.30;;;;;;4946111;29;20021;-96
2022/07/13 03:56:47;;;;;;;;;;;20.40;82.90;;;;;;4946580;29;19941;-96
2022/07/13 03:59:13;;;;;;;;;;;20.30;83.10;;;;;;4929925;29;19947;-96
2022/07/13 04:01:40;;;;;;;;;;;20.00;82.90;;;;;;4946459;29;19956;-96
2022/07/13 04:04:06;;;;;;;;;;;19.70;83.60;;;;;;4945582;29;19950;-96
2022/07/13 04:06:32;;;;;;;;;;;19.70;84.00;;;;;;4928449;29;19979;-96
2022/07/13 04:08:58;;;;;;;;;;;19.70;84.30;;;;;;4928441;29;19942;-96
2022/07/13 04:11:25;;;;;;;;;;;19.60;84.60;;;;;;4928179;29;20043;-96
2022/07/13 04:13:51;;;;;;;;;;;19.60;85.30;;;;;;4944972;29;20036;-96
2022/07/13 04:16:17;;;;;;;;;;;19.70;85.20;;;;;;4945040;29;19990;-97
2022/07/13 04:18:43;;;;;;;;;;;19.70;85.20;;;;;;4927899;29;19950;-96
2022/07/13 04:21:10;;;;;;;;;;;19.70;85.60;;;;;;4945551;29;19969;-96
2022/07/13 04:23:36;;;;;;;;;;;19.70;85.50;;;;;;4929227;29;19944;-96
2022/07/13 04:26:02;;;;;;;;;;;19.80;85.30;;;;;;4928062;29;19948;-96
2022/07/13 04:28:28;;;;;;;;;;;19.70;85.50;;;;;;4928175;29;20085;-96
2022/07/13 04:30:53;;;;;;;;;;;19.80;85.60;;;;;;4946319;29;20324;-96
2022/07/13 04:33:19;;;;;;;;;;;19.90;85.80;;;;;;4929190;29;20004;-96
2022/07/13 04:35:45;;;;;;;;;;;20.10;85.40;;;;;;4947069;29;19939;-96
2022/07/13 04:38:10;;;;;;;;;;;20.20;85.10;;;;;;4947222;29;19945;-96
2022/07/13 04:40:36;;;;;;;;;;;20.40;85.10;;;;;;4929803;29;20032;-96
2022/07/13 04:43:02;;;;;;;;;;;20.50;84.80;;;;;;4946846;29;19964;-96
2022/07/13 04:45:27;;;;;;;;;;;20.50;84.70;;;;;;4946055;29;19944;-96
2022/07/13 04:47:53;;;;;;;;;;;20.60;84.60;;;;;;4930188;29;20433;-96
2022/07/13 04:50:19;;;;;;;;;;;20.50;84.80;;;;;;4929302;29;19991;-96
2022/07/13 04:52:45;;;;;;;;;;;20.70;84.70;;;;;;4947945;29;19946;-96
2022/07/13 04:55:10;;;;;;;;;;;20.80;84.20;;;;;;4949173;29;20419;-96
2022/07/13 04:57:36;;;;;;;;;;;20.90;84.40;;;;;;4947204;29;19994;-96
2022/07/13 05:00:06;;;;;;;;;;;21.00;84.30;;;;;;4948395;29;19950;-96
2022/07/13 05:02:32;;;;;;;;;;;21.00;84.20;;;;;;4944766;29;19948;-96
2022/07/13 05:04:58;;;;;;;;;;;21.20;83.10;;;;;;4943699;29;20064;-96
2022/07/13 05:07:24;;;;;;;;;;;21.30;82.60;;;;;;4925811;29;20051;-96
2022/07/13 05:09:49;;;;;;;;;;;21.50;82.10;;;;;;4944939;29;20051;-96
2022/07/13 05:12:17;;;;;;;;;;;21.70;81.60;;;;;;4943777;29;20220;-96
2022/07/13 05:14:43;;;;;;;;;;;21.80;80.90;;;;;;4944845;29;19979;-96
2022/07/13 05:17:09;;;;;;;;;;;21.90;80.50;;;;;;4945627;29;19948;-96
2022/07/13 05:19:34;;;;;;;;;;;21.90;79.90;;;;;;4945653;29;19986;-96
2022/07/13 05:22:00;;;;;;;;;;;22.00;79.40;;;;;;4947364;29;19993;-96
2022/07/13 05:24:26;;;;;;;;;;;22.00;79.10;;;;;;4932720;29;19954;-96
2022/07/13 05:26:54;;;;;;;;;;;22.10;78.60;;;;;;4952524;29;19951;-96
2022/07/13 05:29:20;;;;;;;;;;;22.10;78.10;;;;;;4936516;29;19971;-96
2022/07/13 05:31:49;;;;;;;;;;;22.20;77.80;;;;;;4933265;29;20006;-96
2022/07/13 05:34:15;;;;;;;;;;;22.30;76.30;;;;;;4933593;29;19944;-96
2022/07/13 05:36:41;;;;;;;;;;;22.30;75.70;;;;;;4934769;29;19947;-96
2022/07/13 05:39:08;;;;;;;;;;;22.40;73.90;;;;;;4952116;29;19945;-97
2022/07/13 05:41:34;;;;;;;;;;;22.50;72.70;;;;;;4935923;29;20040;-96
2022/07/13 05:44:00;;;;;;;;;;;22.50;71.20;;;;;;4934847;29;19970;-96
2022/07/13 05:46:26;;;;;;;;;;;22.70;69.90;;;;;;4935308;29;19996;-96
2022/07/13 05:48:53;;;;;;;;;;;22.70;69.70;;;;;;4935571;29;20022;-96
2022/07/13 05:51:19;;;;;;;;;;;22.80;70.30;;;;;;4935421;29;19973;-96
2022/07/13 05:53:46;;;;;;;;;;;22.80;69.70;;;;;;4953125;29;19945;-96
2022/07/13 05:56:13;;;;;;;;;;;22.90;69.50;;;;;;4935553;29;19941;-96
2022/07/13 05:58:39;;;;;;;;;;;22.90;68.70;;;;;;4936439;29;19945;-96
2022/07/13 06:01:05;;;;;;;;;;;23.10;68.50;;;;;;4953222;29;19970;-96
2022/07/13 06:03:34;;;;;;;;;;;23.20;67.50;;;;;;4951097;29;19939;-96
2022/07/13 06:06:00;;;;;;;;;;;23.30;66.60;;;;;;5025830;23;19977;-96
2022/07/13 06:08:25;;;;;;;;;;;23.50;65.30;;;;;;4994133;28;19944;-96
2022/07/13 06:10:54;;;;;;;;;;;23.60;65.00;;;;;;4978037;28;19942;-96
2022/07/13 06:13:23;;;;;;;;;;;23.60;63.90;;;;;;4979712;28;19948;-97
2022/07/13 06:15:52;;;;;;;;;;;23.70;64.20;;;;;;4976769;28;20046;-96
2022/07/13 06:18:18;;;;;;;;;;;23.70;64.50;;;;;;4973997;28;20045;-96
2022/07/13 06:20:43;;;;;;;;;;;23.70;65.30;;;;;;4993914;28;19964;-96
2022/07/13 06:23:09;;;;;;;;;;;23.70;63.70;;;;;;4971986;28;19946;-96
2022/07/13 06:25:35;;;;;;;;;;;23.70;62.70;;;;;;4994605;28;19943;-96
2022/07/13 06:28:04;;;;;;;;;;;23.70;63.60;;;;;;4980211;28;19949;-96
2022/07/13 06:30:31;;;;;;;;;;;23.80;63.90;;;;;;4981033;28;19947;-96
2022/07/13 06:33:04;;;;;;;;;;;23.80;63.20;;;;;;4999235;28;19939;-96
2022/07/13 06:35:33;;;;;;;;;;;23.80;61.50;;;;;;4998638;28;19940;-96
2022/07/13 06:37:59;;;;;;;;;;;23.80;61.90;;;;;;4981533;28;19989;-96
2022/07/13 06:51:29;;;;;;;;;;;24.10;60.80;;;;;;5929029;23;19971;-96
2022/07/13 06:56:34;;;;;;;;;;;24.20;59.10;;;;;;5791628;23;19962;-96
2022/07/13 06:59:02;;;;;;;;;;;24.30;58.60;;;;;;4949079;28;19926;-97
2022/07/13 07:11:53;;;;;;;;;;;24.60;60.60;;;;;;5650716;23;19999;-96
2022/07/13 08:03:38;;;;;;;;;;;25.20;56.60;;;;;;4846278;23;19956;-96
2022/07/13 08:06:12;;;;;;;;;;;25.30;56.50;;;;;;4981868;28;19946;-97
2022/07/13 08:08:44;;;;;;;;;;;25.30;57.90;;;;;;4967267;28;19956;-96
2022/07/13 08:11:24;;;;;;;;;;;25.50;57.50;;;;;;4983720;28;19936;-96
2022/07/13 08:14:17;;;;;;;;;;;25.60;57.00;;;;;;4999113;28;19948;-96
2022/07/13 08:16:49;;;;;;;;;;;25.60;56.30;;;;;;5000563;28;20000;-98
2022/07/13 08:19:18;;;;;;;;;;;25.70;57.10;;;;;;4982067;28;20002;-96
2022/07/13 09:33:01;;;;;;;;;;;26.90;48.50;;;;;;5442926;23;19986;-97
2022/07/13 09:35:59;;;;;;;;;;;26.90;51.20;;;;;;4997941;28;19946;-96
2022/07/13 09:38:38;;;;;;;;;;;27.00;49.30;;;;;;4998454;28;19925;-97
2022/07/13 09:49:07;;;;;;;;;;;27.30;43.00;;;;;;4278389;23;19961;-96
2022/07/13 09:51:57;;;;;;;;;;;27.40;44.70;;;;;;5443738;23;19974;-96
2022/07/13 09:54:29;;;;;;;;;;;27.60;43.90;;;;;;4945042;29;19949;-97
2022/07/13 10:02:12;;;;;;;;;;;27.60;44.00;;;;;;5559530;23;19968;-96
2022/07/13 10:04:41;;;;;;;;;;;27.60;43.50;;;;;;4983875;28;19950;-96
2022/07/13 10:07:10;;;;;;;;;;;27.60;44.10;;;;;;4983363;28;19949;-96
2022/07/13 10:09:52;;;;;;;;;;;27.80;44.90;;;;;;5001187;28;19931;-96
2022/07/13 10:12:31;;;;;;;;;;;27.80;44.00;;;;;;4984668;28;19944;-96
2022/07/13 10:15:04;;;;;;;;;;;27.90;44.60;;;;;;4969069;28;19930;-96
2022/07/13 10:20:10;;;;;;;;;;;28.10;46.10;;;;;;5628779;23;19986;-96
2022/07/13 10:22:48;;;;;;;;;;;28.20;44.00;;;;;;4987825;28;19967;-96
2022/07/13 10:25:15;;;;;;;;;;;28.30;42.90;;;;;;4986001;28;19940;-96
2022/07/13 10:27:41;;;;;;;;;;;28.20;43.10;;;;;;4985943;28;19937;-96
2022/07/13 10:30:09;;;;;;;;;;;28.20;42.30;;;;;;4988272;28;19939;-96
2022/07/13 10:32:36;;;;;;;;;;;28.30;44.20;;;;;;4985757;28;19944;-96
2022/07/13 10:35:09;;;;;;;;;;;28.50;43.10;;;;;;4969699;28;20320;-96
2022/07/13 10:37:53;;;;;;;;;;;28.50;44.00;;;;;;4986946;28;19937;-96
2022/07/13 10:40:20;;;;;;;;;;;28.60;45.10;;;;;;4968520;28;20002;-96
2022/07/13 10:42:59;;;;;;;;;;;28.70;46.40;;;;;;4970765;28;19959;-96
2022/07/13 10:45:31;;;;;;;;;;;28.80;44.70;;;;;;4988924;28;19966;-96
2022/07/13 10:47:57;;;;;;;;;;;28.90;44.40;;;;;;4970672;28;19942;-96
2022/07/13 10:50:24;;;;;;;;;;;28.90;43.60;;;;;;4992443;28;19952;-96
2022/07/13 10:52:50;;;;;;;;;;;28.90;43.40;;;;;;4978929;28;19950;-96
2022/07/13 10:55:16;;;;;;;;;;;29.10;45.30;;;;;;4996566;28;19957;-96
2022/07/13 10:57:43;;;;;;;;;;;29.10;43.60;;;;;;4996330;28;19944;-96
2022/07/13 11:00:23;;;;;;;;;;;29.10;42.90;;;;;;4997204;28;19948;-96
2022/07/13 11:02:49;;;;;;;;;;;29.00;42.60;;;;;;4993021;28;19952;-96
2022/07/13 11:05:19;;;;;;;;;;;29.00;44.00;;;;;;4978746;28;19933;-96
2022/07/13 11:07:46;;;;;;;;;;;29.10;44.40;;;;;;4995707;28;19954;-96
2022/07/13 11:10:19;;;;;;;;;;;29.20;43.10;;;;;;4992676;28;19970;-96
2022/07/13 11:13:02;;;;;;;;;;;29.30;45.90;;;;;;4973434;28;19966;-96
2022/07/13 11:16:00;;;;;;;;;;;29.40;44.20;;;;;;4990221;28;20003;-97
2022/07/13 11:18:30;;;;;;;;;;;29.60;42.50;;;;;;4946472;28;19947;-96
2022/07/13 11:20:56;;;;;;;;;;;29.70;42.00;;;;;;4992372;28;19980;-96
2022/07/13 11:26:09;;;;;;;;;;;30.10;44.00;;;;;;4994472;28;19995;-96
2022/07/13 11:28:43;;;;;;;;;;;30.30;43.00;;;;;;4992679;28;20012;-96
2022/07/13 11:31:12;;;;;;;;;;;30.30;41.30;;;;;;4993338;28;19942;-96
2022/07/13 11:49:15;;;;;;;;;;;30.70;40.40;;;;;;5516420;23;19960;-96
2022/07/13 11:51:45;;;;;;;;;;;30.80;40.90;;;;;;4979266;28;20023;-96
2022/07/13 11:57:18;;;;;;;;;;;30.50;38.70;;;;;;5005913;23;19953;-96
2022/07/13 11:59:43;;;;;;;;;;;30.40;40.30;;;;;;4965799;29;19984;-96
2022/07/13 12:02:11;;;;;;;;;;;30.70;38.90;;;;;;4964473;28;19970;-96
2022/07/13 12:04:40;;;;;;;;;;;31.00;40.80;;;;;;4960849;29;19990;-96
2022/07/13 12:07:10;;;;;;;;;;;31.30;38.90;;;;;;4960493;29;19951;-96
2022/07/13 12:09:36;;;;;;;;;;;31.20;38.30;;;;;;4962554;29;19937;-96
2022/07/13 12:12:01;;;;;;;;;;;31.20;39.60;;;;;;4958489;29;19952;-96
2022/07/13 12:14:27;;;;;;;;;;;31.10;38.50;;;;;;4959274;29;20338;-96
2022/07/13 12:16:53;;;;;;;;;;;31.40;37.90;;;;;;4963532;29;19986;-96
2022/07/13 12:19:19;;;;;;;;;;;32.10;38.30;;;;;;4959634;29;19972;-96
2022/07/13 12:21:57;;;;;;;;;;;32.80;37.90;;;;;;4959945;29;19967;-96
2022/07/13 12:24:23;;;;;;;;;;;33.30;34.90;;;;;;4959111;29;20423;-96
2022/07/13 12:26:52;;;;;;;;;;;32.80;36.00;;;;;;4957585;29;20037;-96
2022/07/13 12:29:30;;;;;;;;;;;32.70;35.40;;;;;;4957460;29;19946;-97
2022/07/13 12:31:56;;;;;;;;;;;33.10;36.60;;;;;;4958569;29;19946;-96
2022/07/13 12:34:22;;;;;;;;;;;33.20;34.80;;;;;;4957257;29;19989;-96
2022/07/13 12:36:48;;;;;;;;;;;33.70;33.60;;;;;;4957233;29;19970;-96
2022/07/13 12:39:14;;;;;;;;;;;34.20;33.40;;;;;;4956128;29;19942;-96
2022/07/13 12:41:42;;;;;;;;;;;34.20;33.70;;;;;;4957506;29;20034;-96
2022/07/13 12:44:09;;;;;;;;;;;34.60;32.10;;;;;;4956540;29;19945;-96
2022/07/13 12:46:50;;;;;;;;;;;34.20;33.00;;;;;;4956282;29;19966;-96
2022/07/13 12:49:16;;;;;;;;;;;34.60;32.10;;;;;;4956746;29;19935;-96
2022/07/13 12:51:45;;;;;;;;;;;34.70;32.50;;;;;;4956506;29;19952;-96
2022/07/13 12:54:14;;;;;;;;;;;34.10;31.80;;;;;;4956556;29;19937;-96
2022/07/13 12:56:50;;;;;;;;;;;34.30;31.80;;;;;;4955856;29;19942;-96
2022/07/13 12:59:22;;;;;;;;;;;34.00;33.90;;;;;;4956000;29;19973;-96
2022/07/13 13:01:48;;;;;;;;;;;34.40;32.90;;;;;;4938671;29;20432;-96
2022/07/13 13:04:15;;;;;;;;;;;34.80;31.10;;;;;;4956024;29;19945;-96
2022/07/13 13:06:41;;;;;;;;;;;34.90;32.70;;;;;;4938677;29;19964;-96
2022/07/13 13:09:09;;;;;;;;;;;35.00;33.00;;;;;;4956005;29;19949;-96
2022/07/13 13:11:35;;;;;;;;;;;36.00;31.30;;;;;;4957618;29;20487;-96
2022/07/13 13:14:01;;;;;;;;;;;36.20;28.70;;;;;;4938198;29;20039;-96
2022/07/13 13:16:26;;;;;;;;;;;35.90;29.20;;;;;;4955807;29;20319;-96
2022/07/13 13:18:52;;;;;;;;;;;35.90;29.70;;;;;;4955822;29;19981;-96
2022/07/13 13:21:17;;;;;;;;;;;36.10;29.30;;;;;;4955058;29;20097;-96
2022/07/13 13:23:43;;;;;;;;;;;36.30;29.50;;;;;;4955721;29;19992;-96
2022/07/13 13:26:09;;;;;;;;;;;36.50;28.30;;;;;;4955602;29;19950;-96
2022/07/13 13:30:43;;;;;;;;;;;36.80;27.70;;;;;;4955578;29;19947;-96
2022/07/13 13:31:20;;;;;;;;;;;37.00;27.70;;;;;;4955397;29;20054;-96
2022/07/13 13:33:45;;;;;;;;;;;37.70;26.40;;;;;;4938443;29;19974;-96
2022/07/13 13:36:11;;;;;;;;;;;39.10;27.10;;;;;;4955952;29;19979;-96
2022/07/13 13:38:37;;;;;;;;;;;40.80;24.30;;;;;;4955739;29;20037;-96
2022/07/13 13:41:04;;;;;;;;;;;41.50;23.90;;;;;;4955811;29;19965;-96
2022/07/13 13:43:29;;;;;;;;;;;41.30;23.50;;;;;;4955655;29;20019;-96
2022/07/13 13:45:55;;;;;;;;;;;39.60;25.00;;;;;;4955031;29;19989;-96
2022/07/13 13:48:20;;;;;;;;;;;38.30;25.30;;;;;;4955551;29;19992;-96
2022/07/13 13:50:46;;;;;;;;;;;38.20;25.00;;;;;;4955573;29;19942;-96
2022/07/13 13:53:11;;;;;;;;;;;38.90;26.00;;;;;;4955823;29;19993;-96
2022/07/13 13:55:37;;;;;;;;;;;39.10;24.40;;;;;;4955564;29;20033;-96
2022/07/13 13:58:03;;;;;;;;;;;38.10;25.00;;;;;;4955392;29;19981;-96
2022/07/13 14:00:28;;;;;;;;;;;37.80;26.70;;;;;;4955440;29;19942;-96
2022/07/13 14:02:54;;;;;;;;;;;38.60;25.90;;;;;;4955281;29;19938;-96
2022/07/13 14:05:19;;;;;;;;;;;39.70;26.80;;;;;;4955418;29;19947;-96
2022/07/13 14:07:45;;;;;;;;;;;40.30;25.90;;;;;;4955427;29;19942;-96
2022/07/13 14:10:11;;;;;;;;;;;40.70;23.30;;;;;;4955502;29;19943;-96
2022/07/13 14:12:36;;;;;;;;;;;40.10;22.80;;;;;;4955406;29;20028;-96
2022/07/13 14:15:03;;;;;;;;;;;40.50;22.30;;;;;;4955687;29;19940;-96
2022/07/13 14:17:28;;;;;;;;;;;40.80;22.80;;;;;;4938156;29;20389;-96
2022/07/13 14:19:54;;;;;;;;;;;39.70;23.30;;;;;;4955765;29;20021;-96
2022/07/13 14:22:19;;;;;;;;;;;38.90;24.40;;;;;;4938292;29;20047;-96
2022/07/13 14:24:45;;;;;;;;;;;38.60;24.90;;;;;;4955637;28;20302;-96
2022/07/13 14:27:11;;;;;;;;;;;38.20;25.70;;;;;;4959074;29;20359;-96
2022/07/13 14:29:36;;;;;;;;;;;38.70;24.90;;;;;;4959003;29;19947;-96
2022/07/13 14:32:02;;;;;;;;;;;39.30;25.50;;;;;;4959394;29;19946;-96
2022/07/13 14:34:28;;;;;;;;;;;39.80;23.70;;;;;;4941568;29;19949;-96
2022/07/13 14:36:53;;;;;;;;;;;38.70;24.40;;;;;;4958680;29;19955;-96
2022/07/13 14:39:19;;;;;;;;;;;38.70;24.80;;;;;;4959114;29;19947;-96
2022/07/13 14:41:44;;;;;;;;;;;38.60;24.90;;;;;;4958454;29;20026;-96
2022/07/13 14:44:13;;;;;;;;;;;38.80;25.40;;;;;;4958968;29;20286;-96
2022/07/13 14:46:38;;;;;;;;;;;39.40;23.50;;;;;;4958594;29;19943;-96
2022/07/13 14:49:04;;;;;;;;;;;39.70;22.70;;;;;;4958505;29;19944;-96
2022/07/13 14:51:29;;;;;;;;;;;40.10;22.40;;;;;;4958622;29;20345;-96
2022/07/13 14:54:04;;;;;;;;;;;39.90;21.90;;;;;;4958347;29;20310;-96
2022/07/13 14:56:30;;;;;;;;;;;40.00;23.40;;;;;;4958177;29;20314;-96
2022/07/13 14:58:57;;;;;;;;;;;40.10;24.40;;;;;;4957946;29;19975;-96
2022/07/13 15:01:22;;;;;;;;;;;40.40;23.80;;;;;;4958054;29;19962;-96
2022/07/13 15:03:50;;;;;;;;;;;40.40;24.20;;;;;;4958047;29;19942;-96
2022/07/13 15:06:17;;;;;;;;;;;39.80;23.30;;;;;;4940836;29;19954;-96
2022/07/13 15:08:42;;;;;;;;;;;40.40;22.90;;;;;;4940641;29;20043;-96
2022/07/13 15:11:10;;;;;;;;;;;40.60;22.20;;;;;;4958278;29;19975;-96
2022/07/13 15:13:36;;;;;;;;;;;40.30;23.30;;;;;;4958111;29;19946;-96
2022/07/13 15:16:01;;;;;;;;;;;40.40;24.00;;;;;;4957251;29;19944;-96
2022/07/13 15:18:27;;;;;;;;;;;39.10;24.10;;;;;;4957802;29;20039;-96
2022/07/13 15:20:53;;;;;;;;;;;39.10;23.90;;;;;;4957598;29;20332;-96
2022/07/13 15:23:18;;;;;;;;;;;38.70;24.20;;;;;;4957663;29;20318;-96
2022/07/13 15:25:46;;;;;;;;;;;38.20;25.70;;;;;;4940314;29;19951;-96
2022/07/13 15:28:11;;;;;;;;;;;38.10;26.30;;;;;;4957802;29;19986;-96
2022/07/13 15:30:37;;;;;;;;;;;38.00;25.30;;;;;;4957448;29;19991;-96
2022/07/13 15:33:03;;;;;;;;;;;37.40;26.40;;;;;;4957510;29;19944;-96
2022/07/13 15:35:28;;;;;;;;;;;37.70;26.00;;;;;;4957480;29;20037;-96
2022/07/13 15:37:54;;;;;;;;;;;38.10;26.40;;;;;;4956391;28;19991;-96
2022/07/13 15:40:20;;;;;;;;;;;38.50;26.40;;;;;;4940250;29;20481;-96
2022/07/13 15:42:45;;;;;;;;;;;37.60;26.30;;;;;;4957394;29;19981;-96
2022/07/13 15:45:12;;;;;;;;;;;37.40;26.90;;;;;;4957241;29;19986;-95
2022/07/13 15:47:37;;;;;;;;;;;36.90;26.80;;;;;;4955721;29;19952;-96
2022/07/13 15:50:03;;;;;;;;;;;36.50;28.40;;;;;;4956787;29;19944;-96
2022/07/13 15:52:29;;;;;;;;;;;36.40;28.50;;;;;;4939875;29;20096;-96
2022/07/13 15:54:54;;;;;;;;;;;36.80;27.60;;;;;;4939761;29;19943;-96
2022/07/13 15:57:20;;;;;;;;;;;36.70;28.10;;;;;;4939780;29;19950;-96
2022/07/13 15:59:45;;;;;;;;;;;36.00;28.40;;;;;;4956839;29;20376;-96
2022/07/13 16:02:12;;;;;;;;;;;35.90;29.50;;;;;;4956959;29;19966;-96
2022/07/13 16:04:37;;;;;;;;;;;35.80;28.40;;;;;;4956901;29;19981;-96
2022/07/13 16:07:03;;;;;;;;;;;36.00;28.90;;;;;;4956986;29;19937;-96
2022/07/13 16:09:28;;;;;;;;;;;35.90;28.90;;;;;;4956845;29;19940;-96
2022/07/13 16:11:54;;;;;;;;;;;35.30;29.70;;;;;;4956915;29;19937;-95
2022/07/13 16:14:19;;;;;;;;;;;34.90;31.80;;;;;;4951902;29;20413;-96
2022/07/13 16:16:45;;;;;;;;;;;34.70;30.70;;;;;;4956797;29;19946;-96
2022/07/13 16:19:12;;;;;;;;;;;34.20;31.10;;;;;;4956904;29;19952;-96
2022/07/13 16:21:37;;;;;;;;;;;34.20;32.20;;;;;;4939406;29;19979;-96
2022/07/13 16:24:03;;;;;;;;;;;34.30;31.30;;;;;;4956675;29;19940;-96
2022/07/13 16:26:28;;;;;;;;;;;34.20;31.20;;;;;;4939548;29;20451;-96
2022/07/13 16:28:54;;;;;;;;;;;34.40;31.80;;;;;;4956589;29;19945;-96
2022/07/13 16:31:19;;;;;;;;;;;34.70;31.00;;;;;;4956203;29;20033;-96
2022/07/13 16:33:46;;;;;;;;;;;34.60;30.00;;;;;;4957072;29;19943;-96
2022/07/13 16:36:11;;;;;;;;;;;34.50;31.00;;;;;;4956820;29;19948;-96
2022/07/13 16:38:37;;;;;;;;;;;34.50;31.20;;;;;;4956788;29;19954;-96
2022/07/13 16:41:03;;;;;;;;;;;34.20;31.20;;;;;;4956656;29;20037;-96
2022/07/13 16:43:28;;;;;;;;;;;34.10;31.90;;;;;;4956514;29;20051;-96
2022/07/13 16:45:54;;;;;;;;;;;34.10;31.50;;;;;;4956450;29;19946;-96
2022/07/13 16:48:19;;;;;;;;;;;34.40;31.20;;;;;;4955379;28;19947;-96
2022/07/13 16:50:45;;;;;;;;;;;34.30;30.90;;;;;;4956430;29;20023;-96
2022/07/13 16:53:11;;;;;;;;;;;34.10;31.90;;;;;;4956316;29;20041;-96
2022/07/13 16:55:36;;;;;;;;;;;34.10;31.80;;;;;;4956285;29;19984;-96
2022/07/13 16:58:02;;;;;;;;;;;34.20;31.50;;;;;;4955926;29;19971;-96
2022/07/13 17:00:28;;;;;;;;;;;34.20;31.80;;;;;;4956492;29;19944;-96
2022/07/13 17:02:54;;;;;;;;;;;33.80;31.60;;;;;;4956006;29;19961;-96
2022/07/13 17:05:22;;;;;;;;;;;33.30;31.40;;;;;;4956089;29;20036;-95
2022/07/13 17:07:48;;;;;;;;;;;33.30;31.70;;;;;;4956401;29;19952;-96
2022/07/13 17:10:13;;;;;;;;;;;33.20;31.80;;;;;;4956326;29;19943;-96
2022/07/13 17:12:39;;;;;;;;;;;33.30;32.80;;;;;;4956304;29;19944;-96
2022/07/13 17:15:05;;;;;;;;;;;33.30;32.20;;;;;;4956016;29;20400;-96
2022/07/13 17:17:30;;;;;;;;;;;33.30;33.00;;;;;;4956556;29;19954;-96